Time;durP1;ratioP1;P1;durP2;ratioP2;P2;SDS_P1;SDS_P2;PMS_P1;PMS_P2;Temp;Humidity;BMP_temperature;BMP_pressure;BME280_temperature;BME280_humidity;BME280_pressure;Samples;Min_cycle;Max_cycle;Signal;HPM_P1;HPM_P2
2023/07/18 00:01:17;;;;;;;3.30;1.80;;;18.30;99.90;;;;;;4143091;28;20037;-59
2023/07/18 00:03:19;;;;;;;2.83;1.70;;;18.30;99.90;;;;;;4162241;28;20045;-59
2023/07/18 00:05:21;;;;;;;2.95;1.90;;;18.30;99.90;;;;;;4162709;28;20094;-59
2023/07/18 00:07:22;;;;;;;4.97;2.45;;;18.30;99.90;;;;;;4170331;28;20235;-59
2023/07/18 00:09:22;;;;;;;2.60;1.92;;;18.30;99.90;;;;;;4162355;28;20061;-59
2023/07/18 00:11:23;;;;;;;4.50;1.95;;;18.30;99.90;;;;;;4161382;28;20109;-59
2023/07/18 00:13:25;;;;;;;2.55;2.00;;;18.30;99.90;;;;;;4160480;28;20489;-59
2023/07/18 00:15:26;;;;;;;2.97;1.83;;;18.30;99.90;;;;;;4156304;28;20049;-63
2023/07/18 00:17:27;;;;;;;2.38;1.98;;;18.30;99.90;;;;;;4161761;28;20049;-60
2023/07/18 00:19:29;;;;;;;4.57;2.33;;;18.30;99.90;;;;;;4168820;28;20404;-59
2023/07/18 00:21:30;;;;;;;3.47;2.10;;;18.30;99.90;;;;;;4156684;28;20029;-59
2023/07/18 00:23:30;;;;;;;3.50;2.03;;;18.30;99.90;;;;;;4150110;28;20037;-59
2023/07/18 00:25:31;;;;;;;4.10;2.08;;;18.30;99.90;;;;;;4147065;28;20026;-59
2023/07/18 00:27:31;;;;;;;4.38;2.05;;;18.30;99.90;;;;;;4153750;28;20370;-59
2023/07/18 00:29:32;;;;;;;4.72;2.55;;;18.30;99.90;;;;;;4152040;28;20029;-59
2023/07/18 00:31:32;;;;;;;2.45;2.00;;;18.30;99.90;;;;;;4158866;28;20041;-60
2023/07/18 00:33:33;;;;;;;4.30;2.40;;;18.30;99.90;;;;;;4145676;28;20041;-59
2023/07/18 00:35:34;;;;;;;2.78;2.03;;;18.30;99.90;;;;;;4150091;28;20025;-59
2023/07/18 00:37:35;;;;;;;4.60;2.15;;;18.30;99.90;;;;;;4155736;28;20026;-59
2023/07/18 00:39:35;;;;;;;5.10;2.58;;;18.20;99.90;;;;;;4176818;28;20029;-59
2023/07/18 00:41:36;;;;;;;5.20;1.95;;;18.20;99.90;;;;;;4152338;28;20374;-61
2023/07/18 00:43:37;;;;;;;3.00;1.95;;;18.10;99.90;;;;;;4130614;28;20496;-60
2023/07/18 00:45:37;;;;;;;2.63;1.92;;;18.00;99.90;;;;;;4139798;28;20041;-60
2023/07/18 00:47:41;;;;;;;2.85;2.20;;;18.00;99.90;;;;;;4146494;28;20034;-59
2023/07/18 00:49:42;;;;;;;3.35;2.30;;;18.00;99.90;;;;;;4144121;28;20037;-60
2023/07/18 00:51:43;;;;;;;2.72;2.08;;;17.90;99.90;;;;;;4144909;28;20497;-59
2023/07/18 00:53:44;;;;;;;3.97;2.28;;;17.90;99.90;;;;;;4161930;28;20060;-59
2023/07/18 00:55:44;;;;;;;2.75;2.20;;;17.90;99.90;;;;;;4151944;28;20384;-59
2023/07/18 00:57:46;;;;;;;3.55;2.08;;;17.90;99.90;;;;;;4162611;28;20026;-59
2023/07/18 00:59:47;;;;;;;2.67;2.03;;;17.90;99.90;;;;;;4171008;28;20120;-59
2023/07/18 01:01:48;;;;;;;5.22;2.17;;;17.90;99.90;;;;;;4153289;28;20029;-59
2023/07/18 01:03:49;;;;;;;4.22;2.08;;;17.90;99.90;;;;;;4158820;28;20035;-59
2023/07/18 01:05:49;;;;;;;2.80;2.00;;;17.90;99.90;;;;;;4154907;28;20029;-59
2023/07/18 01:07:50;;;;;;;2.95;1.90;;;17.90;99.90;;;;;;4147747;28;20091;-60
2023/07/18 01:09:53;;;;;;;3.08;2.22;;;17.90;99.90;;;;;;4144998;28;20030;-59
2023/07/18 01:11:55;;;;;;;4.20;2.53;;;17.90;99.90;;;;;;4155516;28;20033;-59
2023/07/18 01:13:55;;;;;;;5.40;1.87;;;18.00;99.90;;;;;;4171978;28;20044;-59
2023/07/18 01:15:56;;;;;;;5.07;2.15;;;17.90;99.90;;;;;;4153065;28;20049;-59
2023/07/18 01:17:57;;;;;;;4.43;1.90;;;17.90;99.90;;;;;;4149024;28;20038;-62
2023/07/18 01:19:58;;;;;;;4.18;2.30;;;17.90;99.90;;;;;;4147234;28;20042;-59
2023/07/18 01:21:58;;;;;;;3.92;1.98;;;17.90;99.90;;;;;;4150920;28;20077;-61
2023/07/18 01:23:59;;;;;;;6.55;1.95;;;17.90;99.90;;;;;;4152454;28;20029;-61
2023/07/18 01:26:00;;;;;;;4.35;2.30;;;17.90;99.90;;;;;;4154335;28;20041;-59
2023/07/18 01:28:00;;;;;;;3.15;2.20;;;17.90;99.90;;;;;;4139466;28;20031;-60
2023/07/18 01:30:01;;;;;;;3.42;1.88;;;17.80;99.90;;;;;;4146204;28;20497;-59
2023/07/18 01:32:02;;;;;;;3.78;2.40;;;17.80;99.90;;;;;;4153398;28;20321;-59
2023/07/18 01:34:04;;;;;;;4.93;2.28;;;17.80;99.90;;;;;;4131721;28;20033;-59
2023/07/18 01:36:07;;;;;;;3.33;2.13;;;17.80;99.90;;;;;;4144779;28;20508;-59
2023/07/18 01:38:07;;;;;;;4.38;2.40;;;17.70;99.90;;;;;;4133660;28;20057;-60
2023/07/18 01:40:09;;;;;;;4.85;2.33;;;17.70;99.90;;;;;;4157168;28;20029;-60
2023/07/18 01:42:10;;;;;;;3.53;2.13;;;17.70;99.90;;;;;;4152802;28;20391;-60
2023/07/18 01:44:10;;;;;;;3.05;2.15;;;17.70;99.90;;;;;;4160003;28;20125;-59
2023/07/18 01:46:11;;;;;;;3.40;1.92;;;17.70;99.90;;;;;;4156192;28;20047;-59
2023/07/18 01:48:11;;;;;;;2.67;2.10;;;17.70;99.90;;;;;;4157473;28;20038;-59
2023/07/18 01:50:12;;;;;;;3.30;1.95;;;17.70;99.90;;;;;;4159831;28;20112;-60
2023/07/18 01:52:12;;;;;;;2.70;1.92;;;17.70;99.90;;;;;;4159540;28;20041;-59
2023/07/18 01:54:13;;;;;;;4.13;2.15;;;17.60;99.90;;;;;;4159707;28;20056;-59
2023/07/18 01:56:14;;;;;;;4.25;1.58;;;17.70;99.90;;;;;;4155517;28;20488;-59
2023/07/18 01:58:15;;;;;;;10.30;1.95;;;17.60;99.90;;;;;;4162219;28;20033;-59
2023/07/18 02:00:19;;;;;;;5.75;1.95;;;17.60;99.90;;;;;;4159782;28;20033;-59
2023/07/18 02:02:20;;;;;;;5.55;1.90;;;17.50;99.90;;;;;;4166652;28;20083;-59
2023/07/18 02:04:21;;;;;;;2.25;1.80;;;17.50;99.90;;;;;;4166376;28;20116;-59
2023/07/18 02:06:24;;;;;;;3.60;2.05;;;17.50;99.90;;;;;;4162618;28;20033;-59
2023/07/18 02:08:25;;;;;;;5.05;2.05;;;17.50;99.90;;;;;;4163113;28;20021;-59
2023/07/18 02:10:26;;;;;;;4.60;2.15;;;17.50;99.90;;;;;;4160758;28;23071;-59
2023/07/18 02:12:27;;;;;;;4.32;2.00;;;17.50;99.90;;;;;;4152797;28;20449;-59
2023/07/18 02:14:28;;;;;;;3.22;2.00;;;17.50;99.90;;;;;;4164282;28;20037;-59
2023/07/18 02:16:29;;;;;;;2.55;1.65;;;17.50;99.90;;;;;;4162019;28;20503;-59
2023/07/18 02:18:30;;;;;;;3.25;1.70;;;17.50;99.90;;;;;;4165023;28;20480;-59
2023/07/18 02:20:31;;;;;;;4.05;1.80;;;17.50;99.90;;;;;;4165559;28;20033;-59
2023/07/18 02:22:34;;;;;;;4.95;1.85;;;17.40;99.90;;;;;;4164829;28;20037;-59
2023/07/18 02:24:36;;;;;;;3.38;1.60;;;17.30;99.90;;;;;;4166090;28;20439;-59
2023/07/18 02:26:38;;;;;;;3.20;1.73;;;17.20;99.90;;;;;;4161976;28;20025;-61
2023/07/18 02:28:38;;;;;;;4.47;1.77;;;17.20;99.90;;;;;;4165028;28;20488;-59
2023/07/18 02:30:39;;;;;;;3.15;1.63;;;16.90;99.90;;;;;;4163101;28;20034;-59
2023/07/18 02:32:40;;;;;;;4.25;1.85;;;16.80;99.90;;;;;;4166444;28;20116;-59
2023/07/18 02:34:41;;;;;;;4.85;1.95;;;16.80;99.90;;;;;;4164476;28;20037;-59
2023/07/18 02:36:41;;;;;;;3.88;1.90;;;16.70;99.90;;;;;;4163308;28;20025;-59
2023/07/18 02:38:42;;;;;;;6.63;1.92;;;16.70;99.90;;;;;;4166136;28;20139;-59
2023/07/18 02:40:43;;;;;;;5.18;1.80;;;16.70;99.90;;;;;;4162565;28;20505;-59
2023/07/18 02:42:43;;;;;;;2.92;1.70;;;16.70;99.90;;;;;;4159250;28;20052;-59
2023/07/18 02:44:45;;;;;;;4.18;1.55;;;16.70;99.90;;;;;;4180528;28;20037;-59
2023/07/18 02:46:47;;;;;;;4.20;1.88;;;16.80;99.90;;;;;;4179137;28;20098;-59
2023/07/18 02:48:48;;;;;;;4.47;1.70;;;16.80;99.90;;;;;;4174941;28;20029;-59
2023/07/18 02:50:49;;;;;;;5.05;1.95;;;16.80;99.90;;;;;;4188399;28;20548;-58
2023/07/18 02:52:49;;;;;;;2.40;1.75;;;16.90;99.90;;;;;;4176725;28;20045;-59
2023/07/18 02:54:50;;;;;;;3.65;1.73;;;16.90;99.90;;;;;;4183027;28;20043;-59
2023/07/18 02:56:51;;;;;;;5.13;2.08;;;16.90;99.90;;;;;;4181048;28;20068;-59
2023/07/18 02:58:51;;;;;;;5.30;2.20;;;16.90;99.90;;;;;;4169808;28;20099;-59
2023/07/18 03:00:52;;;;;;;3.28;2.20;;;16.90;99.90;;;;;;4176801;28;20040;-59
2023/07/18 03:02:53;;;;;;;5.40;2.20;;;16.90;99.90;;;;;;4177606;28;20034;-59
2023/07/18 03:04:53;;;;;;;4.78;2.75;;;16.90;99.90;;;;;;4185166;28;20493;-59
2023/07/18 03:06:54;;;;;;;3.67;2.45;;;16.90;99.90;;;;;;4176094;28;20391;-59
2023/07/18 03:08:54;;;;;;;5.53;2.95;;;16.90;99.90;;;;;;4170539;28;20033;-59
2023/07/18 03:10:55;;;;;;;4.63;2.78;;;16.90;99.90;;;;;;4181886;28;20033;-59
2023/07/18 03:12:56;;;;;;;5.20;2.63;;;16.90;99.90;;;;;;4181130;28;20052;-59
2023/07/18 03:14:56;;;;;;;3.33;2.63;;;16.90;99.90;;;;;;4176622;28;20235;-59
2023/07/18 03:16:57;;;;;;;3.80;2.60;;;16.90;99.90;;;;;;4178655;28;20052;-59
2023/07/18 03:18:59;;;;;;;4.30;2.70;;;16.90;99.90;;;;;;4185534;28;20047;-59
2023/07/18 03:20:59;;;;;;;4.73;2.93;;;16.90;99.90;;;;;;4175155;28;20392;-59
2023/07/18 03:23:01;;;;;;;4.07;2.63;;;16.90;99.90;;;;;;4185655;28;20063;-61
2023/07/18 03:25:07;;;;;;;4.30;3.08;;;16.90;99.90;;;;;;4179522;28;20120;-59
2023/07/18 03:27:07;;;;;;;4.32;2.90;;;16.90;99.90;;;;;;4155307;28;20063;-59
2023/07/18 03:29:09;;;;;;;4.07;2.83;;;16.90;99.90;;;;;;4156327;28;20053;-59
2023/07/18 03:31:10;;;;;;;4.47;2.95;;;16.90;99.90;;;;;;4174684;28;20037;-59
2023/07/18 03:33:11;;;;;;;5.28;2.97;;;16.90;99.90;;;;;;4180236;28;20112;-59
2023/07/18 03:35:14;;;;;;;6.32;3.00;;;16.90;99.90;;;;;;4179250;28;20484;-60
2023/07/18 03:37:14;;;;;;;4.13;2.67;;;16.90;99.90;;;;;;4181251;28;20056;-59
2023/07/18 03:39:15;;;;;;;5.18;2.72;;;16.90;99.90;;;;;;4174310;28;20401;-59
2023/07/18 03:41:16;;;;;;;5.75;3.10;;;16.90;99.90;;;;;;4166949;28;20481;-59
2023/07/18 03:43:17;;;;;;;5.18;2.72;;;16.90;99.90;;;;;;4160048;28;20051;-59
2023/07/18 03:45:18;;;;;;;4.38;3.00;;;16.90;99.90;;;;;;4150513;28;20029;-59
2023/07/18 03:47:19;;;;;;;6.07;2.90;;;16.90;99.90;;;;;;4163647;28;20042;-59
2023/07/18 03:49:19;;;;;;;4.53;2.63;;;16.90;99.90;;;;;;4154013;28;20041;-59
2023/07/18 03:51:20;;;;;;;4.68;3.08;;;16.90;99.90;;;;;;4178818;28;20060;-59
2023/07/18 03:53:21;;;;;;;4.40;2.92;;;16.90;99.90;;;;;;4184071;28;20046;-59
2023/07/18 03:55:21;;;;;;;5.00;2.92;;;16.90;99.90;;;;;;4165259;28;20555;-59
2023/07/18 03:57:22;;;;;;;5.32;2.70;;;16.90;99.90;;;;;;4164574;28;20384;-59
2023/07/18 03:59:22;;;;;;;4.13;2.67;;;16.90;99.90;;;;;;4158791;28;20041;-59
2023/07/18 04:01:23;;;;;;;4.75;2.70;;;17.00;99.90;;;;;;4162708;28;20061;-59
2023/07/18 04:03:23;;;;;;;4.18;2.83;;;17.00;99.90;;;;;;4150277;28;20112;-59
2023/07/18 04:05:24;;;;;;;5.15;2.75;;;17.00;99.90;;;;;;4149623;28;20029;-59
2023/07/18 04:07:25;;;;;;;4.00;2.50;;;17.00;99.90;;;;;;4147166;28;20022;-59
2023/07/18 04:09:26;;;;;;;4.13;2.50;;;16.90;99.90;;;;;;4168054;28;20047;-59
2023/07/18 04:11:26;;;;;;;3.85;2.85;;;17.00;99.90;;;;;;4152763;28;20026;-59
2023/07/18 04:13:27;;;;;;;6.22;3.15;;;17.00;99.90;;;;;;4176530;28;20094;-59
2023/07/18 04:15:27;;;;;;;4.22;2.72;;;17.00;99.90;;;;;;4168270;28;20111;-59
2023/07/18 04:17:28;;;;;;;7.85;2.47;;;17.00;99.90;;;;;;4170876;28;20032;-59
2023/07/18 04:19:29;;;;;;;5.15;2.80;;;17.00;99.90;;;;;;4163005;28;20026;-59
2023/07/18 04:21:30;;;;;;;5.20;3.08;;;17.00;99.90;;;;;;4162665;28;20071;-59
2023/07/18 04:23:31;;;;;;;5.63;2.80;;;17.10;99.90;;;;;;4156435;28;20026;-61
2023/07/18 04:25:34;;;;;;;6.15;3.33;;;17.00;99.90;;;;;;4154414;28;20025;-60
2023/07/18 04:27:35;;;;;;;5.03;2.90;;;17.10;99.90;;;;;;4152152;28;20037;-59
2023/07/18 04:29:35;;;;;;;6.55;2.83;;;17.10;99.90;;;;;;4157922;28;20021;-59
2023/07/18 04:31:36;;;;;;;5.03;2.90;;;17.10;99.90;;;;;;4160701;28;20146;-59
2023/07/18 04:33:37;;;;;;;6.57;2.90;;;17.10;99.90;;;;;;4157501;28;20079;-59
2023/07/18 04:35:39;;;;;;;4.70;3.20;;;17.10;99.90;;;;;;4158164;28;20033;-60
2023/07/18 04:37:40;;;;;;;8.27;3.00;;;17.10;99.90;;;;;;4159923;28;20034;-59
2023/07/18 04:39:40;;;;;;;6.90;2.97;;;17.10;99.90;;;;;;4160126;28;20032;-59
2023/07/18 04:41:41;;;;;;;5.00;3.15;;;17.10;99.90;;;;;;4151864;28;20125;-59
2023/07/18 04:43:42;;;;;;;3.85;2.65;;;17.10;99.90;;;;;;4160567;28;20034;-59
2023/07/18 04:45:44;;;;;;;4.60;2.85;;;17.00;99.90;;;;;;4158263;28;20057;-60
2023/07/18 04:47:45;;;;;;;7.82;3.63;;;17.00;99.90;;;;;;4160435;28;20033;-59
2023/07/18 04:49:45;;;;;;;4.97;2.90;;;17.00;99.90;;;;;;4162265;28;20504;-59
2023/07/18 04:51:46;;;;;;;6.97;2.95;;;17.00;99.90;;;;;;4161080;28;20034;-59
2023/07/18 04:53:47;;;;;;;5.32;3.28;;;17.00;99.90;;;;;;4160905;28;20026;-59
2023/07/18 04:55:50;;;;;;;4.95;2.95;;;17.00;99.90;;;;;;4153505;28;20022;-59
2023/07/18 04:57:51;;;;;;;4.80;3.08;;;17.00;99.90;;;;;;4152763;28;20038;-59
2023/07/18 04:59:51;;;;;;;5.07;2.85;;;16.90;99.90;;;;;;4160945;28;20117;-59
2023/07/18 05:01:53;;;;;;;4.93;3.08;;;16.90;99.90;;;;;;4156333;28;20026;-58
2023/07/18 05:03:55;;;;;;;5.05;2.92;;;16.90;99.90;;;;;;4160897;28;20045;-59
2023/07/18 05:05:56;;;;;;;6.70;3.40;;;16.90;99.90;;;;;;4158148;28;20603;-59
2023/07/18 05:08:01;;;;;;;7.30;3.40;;;16.90;99.90;;;;;;4159360;28;20033;-59
2023/07/18 05:10:02;;;;;;;5.47;3.03;;;16.90;99.90;;;;;;4158702;28;20033;-60
2023/07/18 05:12:03;;;;;;;5.88;3.15;;;16.90;99.90;;;;;;4158616;28;20075;-59
2023/07/18 05:14:04;;;;;;;7.78;3.40;;;16.90;99.90;;;;;;4158367;28;20041;-59
2023/07/18 05:16:05;;;;;;;8.10;3.47;;;16.70;99.90;;;;;;4154817;28;20040;-59
2023/07/18 05:18:05;;;;;;;8.77;3.38;;;16.80;99.90;;;;;;4157041;28;20103;-59
2023/07/18 05:20:10;;;;;;;5.72;3.25;;;16.80;99.90;;;;;;4160970;28;20125;-60
2023/07/18 05:22:11;;;;;;;4.03;3.00;;;16.70;99.90;;;;;;4152680;28;20042;-59
2023/07/18 05:24:11;;;;;;;5.93;3.40;;;16.70;99.90;;;;;;4154563;28;20029;-59
2023/07/18 05:26:12;;;;;;;6.15;3.05;;;16.80;99.90;;;;;;4152260;28;20072;-59
2023/07/18 05:28:12;;;;;;;6.43;3.30;;;16.80;99.90;;;;;;4156507;28;20096;-59
2023/07/18 05:30:16;;;;;;;6.20;3.25;;;16.80;99.90;;;;;;4149382;28;20096;-59
2023/07/18 05:32:16;;;;;;;5.38;3.20;;;16.70;99.90;;;;;;4158405;28;20045;-59
2023/07/18 05:34:17;;;;;;;5.22;3.00;;;16.80;99.90;;;;;;4157021;28;20076;-59
2023/07/18 05:36:17;;;;;;;6.63;3.20;;;16.80;99.90;;;;;;4159368;28;20035;-59
2023/07/18 05:38:18;;;;;;;6.13;3.25;;;16.80;99.90;;;;;;4159895;28;20033;-59
2023/07/18 05:40:19;;;;;;;6.35;3.10;;;16.80;99.90;;;;;;4154513;28;20034;-59
2023/07/18 05:42:20;;;;;;;6.95;3.03;;;16.80;99.90;;;;;;4158547;28;20524;-60
2023/07/18 05:44:20;;;;;;;6.68;3.40;;;16.80;99.90;;;;;;4149871;28;20033;-59
2023/07/18 05:46:21;;;;;;;6.28;3.05;;;16.90;99.90;;;;;;4156430;28;20029;-59
2023/07/18 05:48:22;;;;;;;5.90;3.10;;;16.90;99.90;;;;;;4159183;28;20064;-59
2023/07/18 05:50:22;;;;;;;6.75;3.08;;;17.00;99.90;;;;;;4159804;28;20510;-59
2023/07/18 05:52:23;;;;;;;8.52;3.38;;;17.00;99.90;;;;;;4158556;28;20041;-59
2023/07/18 05:54:23;;;;;;;7.45;3.30;;;17.00;99.90;;;;;;4156695;28;20512;-59
2023/07/18 05:56:24;;;;;;;6.55;2.90;;;17.00;99.90;;;;;;4147032;28;20056;-60
2023/07/18 05:58:25;;;;;;;5.05;2.80;;;17.10;99.90;;;;;;4152938;28;20038;-59
2023/07/18 06:00:25;;;;;;;2.53;2.15;;;17.10;99.90;;;;;;4152267;28;20482;-59
2023/07/18 06:02:26;;;;;;;7.20;3.08;;;17.10;99.90;;;;;;4153244;28;20034;-59
2023/07/18 06:04:26;;;;;;;3.67;2.60;;;17.20;99.90;;;;;;4154791;28;20084;-59
2023/07/18 06:06:27;;;;;;;5.97;3.30;;;17.40;99.90;;;;;;4152107;28;20036;-59
2023/07/18 06:08:28;;;;;;;5.55;3.00;;;17.60;99.90;;;;;;4153141;28;21694;-59
2023/07/18 06:10:28;;;;;;;5.90;2.97;;;18.00;99.90;;;;;;4154479;28;20045;-59
2023/07/18 06:12:29;;;;;;;5.30;2.67;;;18.40;99.90;;;;;;4150804;28;20077;-62
2023/07/18 06:14:30;;;;;;;4.75;2.65;;;18.80;99.90;;;;;;4152598;28;20142;-61
2023/07/18 06:16:30;;;;;;;6.22;2.97;;;19.30;99.90;;;;;;4151497;28;20362;-62
2023/07/18 06:18:31;;;;;;;4.22;2.45;;;19.70;99.90;;;;;;4151631;28;20053;-62
2023/07/18 06:20:32;;;;;;;4.72;2.13;;;20.20;99.90;;;;;;4153184;28;20393;-61
2023/07/18 06:22:33;;;;;;;3.85;2.28;;;20.60;99.90;;;;;;4150596;28;20113;-62
2023/07/18 06:24:33;;;;;;;5.43;2.30;;;21.10;99.90;;;;;;4152011;28;20480;-62
2023/07/18 06:26:34;;;;;;;4.20;2.10;;;21.40;99.90;;;;;;4153302;28;20152;-62
2023/07/18 06:28:35;;;;;;;5.60;2.30;;;21.70;99.90;;;;;;4155703;28;20034;-62
2023/07/18 06:30:37;;;;;;;4.60;1.98;;;22.00;99.90;;;;;;4155582;28;20026;-63
2023/07/18 06:32:39;;;;;;;5.70;2.50;;;22.30;99.90;;;;;;4151559;28;20041;-63
2023/07/18 06:34:40;;;;;;;3.88;1.95;;;22.60;99.90;;;;;;4155672;28;20452;-63
2023/07/18 06:36:41;;;;;;;3.20;1.93;;;22.80;99.90;;;;;;4152148;28;20088;-62
2023/07/18 06:38:42;;;;;;;2.97;1.90;;;23.20;99.90;;;;;;4151841;28;20034;-63
2023/07/18 06:40:45;;;;;;;3.78;2.00;;;23.40;99.90;;;;;;4151421;28;20481;-63
2023/07/18 06:42:46;;;;;;;4.00;2.03;;;23.50;99.90;;;;;;4158843;28;20067;-62
2023/07/18 06:44:47;;;;;;;2.20;1.63;;;23.80;99.90;;;;;;4168155;28;20034;-63
2023/07/18 06:46:49;;;;;;;3.65;1.80;;;23.90;99.90;;;;;;4165282;28;20029;-63
2023/07/18 06:48:49;;;;;;;3.60;1.90;;;24.10;99.90;;;;;;4177493;28;20515;-63
2023/07/18 06:50:52;;;;;;;7.93;2.05;;;24.10;99.90;;;;;;4174582;28;20033;-63
2023/07/18 06:52:52;;;;;;;3.15;1.98;;;24.10;99.90;;;;;;4155622;28;20465;-62
2023/07/18 06:54:54;;;;;;;4.57;1.98;;;24.20;99.90;;;;;;4177286;28;20034;-62
2023/07/18 06:56:55;;;;;;;4.35;1.88;;;24.10;99.90;;;;;;4177514;28;20396;-63
2023/07/18 06:58:56;;;;;;;2.55;1.58;;;24.10;99.90;;;;;;4175984;28;20033;-62
2023/07/18 07:00:56;;;;;;;3.25;1.60;;;24.10;99.90;;;;;;4171983;28;20536;-63
2023/07/18 07:02:57;;;;;;;4.45;1.60;;;24.20;99.90;;;;;;4175439;28;20025;-63
2023/07/18 07:04:57;;;;;;;5.68;1.67;;;24.10;99.90;;;;;;4163317;28;20084;-62
2023/07/18 07:06:59;;;;;;;2.50;1.45;;;24.10;99.90;;;;;;4174486;28;20045;-62
2023/07/18 07:09:00;;;;;;;2.72;1.60;;;24.10;99.90;;;;;;4173885;28;20087;-63
2023/07/18 07:11:05;;;;;;;2.90;1.70;;;24.10;99.90;;;;;;4173055;28;20033;-63
2023/07/18 07:13:06;;;;;;;3.35;1.75;;;24.00;99.90;;;;;;4170354;28;20503;-62
2023/07/18 07:15:07;;;;;;;2.70;1.40;;;24.00;99.90;;;;;;4174342;28;20045;-63
2023/07/18 07:17:08;;;;;;;1.95;1.35;;;24.10;99.90;;;;;;4163588;28;20432;-63
2023/07/18 07:19:08;;;;;;;3.97;1.50;;;24.10;99.90;;;;;;4159123;28;20030;-65
2023/07/18 07:21:10;;;;;;;3.13;1.60;;;24.10;99.90;;;;;;4161665;28;20025;-65
2023/07/18 07:23:10;;;;;;;2.75;1.58;;;24.10;99.90;;;;;;4158345;28;20038;-63
2023/07/18 07:25:14;;;;;;;3.90;1.80;;;24.10;99.90;;;;;;4169151;28;20025;-64
2023/07/18 07:27:14;;;;;;;3.00;1.38;;;24.10;99.90;;;;;;4166942;28;20108;-63
2023/07/18 07:29:15;;;;;;;2.60;1.73;;;24.10;99.90;;;;;;4172564;28;20025;-63
2023/07/18 07:31:15;;;;;;;4.35;1.48;;;24.00;99.90;;;;;;4169636;28;20033;-63
2023/07/18 07:33:16;;;;;;;3.08;1.52;;;24.10;99.50;;;;;;4175069;28;20033;-63
2023/07/18 07:35:18;;;;;;;2.90;1.38;;;24.00;99.90;;;;;;4174101;28;20029;-63
2023/07/18 07:37:19;;;;;;;5.43;2.00;;;24.00;99.90;;;;;;4156181;28;20041;-63
2023/07/18 07:39:19;;;;;;;3.75;1.63;;;24.00;99.90;;;;;;4169717;28;20021;-63
2023/07/18 07:41:21;;;;;;;2.67;1.40;;;24.00;99.90;;;;;;4173841;28;20038;-63
2023/07/18 07:43:21;;;;;;;3.70;1.60;;;23.90;99.90;;;;;;4176447;28;20522;-62
2023/07/18 07:45:22;;;;;;;4.43;1.50;;;23.90;99.90;;;;;;4177563;28;20041;-62
2023/07/18 07:47:22;;;;;;;3.45;1.30;;;23.90;99.90;;;;;;4178385;28;20397;-62
2023/07/18 07:49:23;;;;;;;6.32;2.00;;;23.90;99.90;;;;;;4180000;28;20033;-62
2023/07/18 07:51:24;;;;;;;2.53;1.52;;;23.90;99.90;;;;;;4174960;28;20034;-62
2023/07/18 07:53:24;;;;;;;3.90;1.80;;;24.00;99.90;;;;;;4176886;28;20067;-62
2023/07/18 07:55:25;;;;;;;2.45;1.55;;;24.10;99.90;;;;;;4173100;28;20037;-62
2023/07/18 07:57:26;;;;;;;6.00;1.50;;;24.00;99.90;;;;;;4177106;28;20032;-62
2023/07/18 07:59:26;;;;;;;3.45;1.40;;;24.10;99.90;;;;;;4182469;28;20037;-62
2023/07/18 08:01:27;;;;;;;2.22;1.30;;;24.00;99.80;;;;;;4174222;28;20037;-62
2023/07/18 08:03:27;;;;;;;2.83;1.30;;;24.10;99.30;;;;;;4172148;28;20040;-62
2023/07/18 08:05:29;;;;;;;2.58;1.23;;;24.00;99.10;;;;;;4174241;28;20033;-62
2023/07/18 08:07:29;;;;;;;3.20;1.50;;;24.10;99.00;;;;;;4158837;28;20500;-62
2023/07/18 08:09:30;;;;;;;4.43;1.50;;;24.10;98.10;;;;;;4172846;28;20053;-62
2023/07/18 08:11:31;;;;;;;4.45;1.20;;;24.10;98.70;;;;;;4174849;28;20064;-62
2023/07/18 08:13:31;;;;;;;3.20;1.20;;;24.10;99.90;;;;;;4159402;28;20045;-63
2023/07/18 08:15:32;;;;;;;1.85;1.40;;;24.20;98.40;;;;;;4174411;28;20048;-62
2023/07/18 08:17:33;;;;;;;2.40;1.05;;;24.20;96.80;;;;;;4179216;28;20033;-63
2023/07/18 08:19:34;;;;;;;2.92;1.10;;;24.10;97.40;;;;;;4158494;28;20033;-62
2023/07/18 08:21:35;;;;;;;2.53;0.98;;;24.10;97.10;;;;;;4162433;28;20120;-62
2023/07/18 08:23:35;;;;;;;3.50;1.33;;;24.20;98.00;;;;;;4172300;28;20037;-62
2023/07/18 08:25:36;;;;;;;3.22;1.30;;;24.20;96.50;;;;;;4179406;28;20037;-62
2023/07/18 08:27:36;;;;;;;2.83;1.25;;;24.20;96.80;;;;;;4172749;28;20037;-62
2023/07/18 08:29:37;;;;;;;2.55;1.10;;;24.20;96.30;;;;;;4182313;28;20369;-62
2023/07/18 08:31:38;;;;;;;3.25;1.15;;;24.10;95.80;;;;;;4171685;28;20103;-62
2023/07/18 08:33:38;;;;;;;2.53;1.02;;;24.00;95.30;;;;;;4172793;28;20438;-62
2023/07/18 08:35:39;;;;;;;4.40;1.00;;;24.00;95.50;;;;;;4167389;28;20072;-62
2023/07/18 08:37:39;;;;;;;2.80;1.10;;;24.00;95.50;;;;;;4170424;28;20029;-67
2023/07/18 08:39:40;;;;;;;2.65;0.90;;;24.00;95.30;;;;;;4172707;28;20511;-63
2023/07/18 08:41:45;;;;;;;3.47;1.25;;;24.00;96.70;;;;;;4170547;28;20487;-63
2023/07/18 08:43:47;;;;;;;2.50;1.27;;;24.00;94.90;;;;;;4162739;28;20045;-62
2023/07/18 08:45:48;;;;;;;5.03;1.30;;;24.00;96.40;;;;;;4158668;28;20455;-62
2023/07/18 08:47:51;;;;;;;2.53;1.10;;;24.00;95.40;;;;;;4164825;28;20038;-62
2023/07/18 08:49:52;;;;;;;1.50;0.88;;;24.00;97.40;;;;;;4145374;28;20037;-62
2023/07/18 08:51:53;;;;;;;3.30;1.20;;;24.00;96.20;;;;;;4143694;28;20052;-62
2023/07/18 08:53:53;;;;;;;2.55;0.88;;;24.00;94.20;;;;;;4141285;28;20487;-63
2023/07/18 08:55:56;;;;;;;2.42;1.00;;;24.00;96.30;;;;;;4140494;28;20437;-62
2023/07/18 08:57:57;;;;;;;4.32;1.38;;;24.10;96.10;;;;;;4134105;28;20053;-62
2023/07/18 09:00:01;;;;;;;3.10;0.90;;;24.10;96.20;;;;;;4151278;28;20114;-62
2023/07/18 09:02:02;;;;;;;3.05;1.20;;;24.10;95.80;;;;;;4160011;28;20484;-62
2023/07/18 09:04:03;;;;;;;3.22;1.02;;;24.10;94.90;;;;;;4143702;28;20406;-62
2023/07/18 09:06:19;;;;;;;4.43;1.25;;;24.10;95.40;;;;;;4139609;28;20382;-62
2023/07/18 09:08:21;;;;;;;2.90;1.10;;;24.10;95.50;;;;;;4135332;28;20030;-63
2023/07/18 09:10:22;;;;;;;;;;;24.10;95.70;;;;;;4141215;28;20026;-63
2023/07/18 09:12:23;;;;;;;1.00;0.90;;;24.20;94.00;;;;;;4142056;28;19968;-62
2023/07/18 09:14:25;;;;;;;1.83;1.00;;;24.30;95.90;;;;;;4137283;28;20500;-63
2023/07/18 09:16:26;;;;;;;4.40;1.30;;;24.40;95.40;;;;;;4141351;28;20045;-62
2023/07/18 09:18:26;;;;;;;1.63;0.88;;;24.50;97.40;;;;;;4141821;28;20046;-63
2023/07/18 09:20:30;;;;;;;1.83;0.82;;;24.60;95.90;;;;;;4143195;28;20120;-63
2023/07/18 09:22:30;;;;;;;2.05;1.02;;;24.60;96.40;;;;;;4127630;28;20463;-63
2023/07/18 09:24:31;;;;;;;1.42;0.80;;;24.70;94.90;;;;;;4138186;28;20030;-63
2023/07/18 09:26:32;;;;;;;1.55;0.70;;;24.70;94.80;;;;;;4134478;28;20034;-63
2023/07/18 09:28:33;;;;;;;3.78;0.88;;;24.70;95.90;;;;;;4144624;28;20039;-63
2023/07/18 09:30:34;;;;;;;2.00;0.73;;;24.70;96.00;;;;;;4149927;28;20030;-63
2023/07/18 09:32:35;;;;;;;2.25;0.82;;;24.60;93.90;;;;;;4154882;28;20064;-63
2023/07/18 09:34:36;;;;;;;2.45;1.05;;;24.50;94.00;;;;;;4157557;28;20139;-63
2023/07/18 09:36:37;;;;;;;1.67;0.60;;;24.50;93.90;;;;;;4138463;28;20026;-63
2023/07/18 09:38:37;;;;;;;2.70;1.05;;;24.60;95.60;;;;;;4142404;28;20351;-63
2023/07/18 09:40:38;;;;;;;2.03;1.00;;;24.50;95.40;;;;;;4140429;28;20042;-63
2023/07/18 09:42:41;;;;;;;2.25;0.90;;;24.60;94.70;;;;;;4142787;28;20033;-63
2023/07/18 09:44:43;;;;;;;2.00;0.85;;;24.50;94.30;;;;;;4152057;28;20765;-63
2023/07/18 09:46:43;;;;;;;3.10;1.00;;;24.50;95.50;;;;;;4159028;28;20095;-63
2023/07/18 09:48:45;;;;;;;2.88;0.80;;;24.50;94.00;;;;;;4159493;28;20104;-62
2023/07/18 09:50:50;;;;;;;1.00;0.60;;;24.40;93.90;;;;;;4153726;28;20044;-64
2023/07/18 09:52:51;;;;;;;2.70;1.15;;;24.30;95.30;;;;;;4167615;28;20056;-63
2023/07/18 09:54:52;;;;;;;1.85;1.05;;;24.30;94.50;;;;;;4162318;28;20444;-63
2023/07/18 09:56:57;;;;;;;5.40;1.27;;;24.30;94.90;;;;;;4174201;28;20587;-63
2023/07/18 09:59:04;;;;;;;1.73;0.60;;;24.40;94.60;;;;;;4167178;28;20025;-63
2023/07/18 10:01:08;;;;;;;2.45;0.95;;;24.40;94.80;;;;;;4172428;28;20056;-63
2023/07/18 10:03:09;;;;;;;3.38;1.15;;;24.40;95.90;;;;;;4174457;28;20060;-63
2023/07/18 10:05:10;;;;;;;1.15;0.90;;;24.40;94.30;;;;;;4169499;28;20048;-63
2023/07/18 10:07:10;;;;;;;15.65;1.42;;;24.40;95.30;;;;;;4164262;28;20056;-64
2023/07/18 10:09:12;;;;;;;1.40;0.80;;;24.50;97.40;;;;;;4167658;28;20056;-63
2023/07/18 10:11:13;;;;;;;1.38;0.80;;;24.50;95.80;;;;;;4172276;28;20029;-63
2023/07/18 10:13:14;;;;;;;1.38;0.80;;;24.50;93.90;;;;;;4159550;28;20076;-63
2023/07/18 10:15:14;;;;;;;1.30;0.77;;;24.50;94.10;;;;;;4166971;28;20036;-63
2023/07/18 10:17:24;;;;;;;2.33;1.25;;;24.50;96.70;;;;;;4146597;28;20563;-63
2023/07/18 10:19:25;;;;;;;3.83;1.20;;;24.50;93.20;;;;;;4171390;28;20736;-63
2023/07/18 10:21:34;;;;;;;2.53;1.10;;;24.50;93.50;;;;;;4173324;28;20038;-63
2023/07/18 10:23:42;;;;;;;2.53;0.90;;;24.40;92.70;;;;;;4163328;28;20040;-63
2023/07/18 10:25:54;;;;;;;2.05;0.95;;;24.40;92.90;;;;;;4153610;28;20029;-63
2023/07/18 10:27:56;;;;;;;1.38;0.73;;;24.30;92.70;;;;;;4159083;28;20022;-63
2023/07/18 10:30:03;;;;;;;1.60;0.80;;;24.30;93.60;;;;;;4154457;28;20038;-63
2023/07/18 10:32:06;;;;;;;1.67;0.80;;;24.30;94.60;;;;;;4152599;28;20392;-63